Spaceon02064 — ASD — position and weather

sailwx.info

Track history (hours):
 
Tides and Currents Weather Stations Pressure Air Temp Water Temp Dewpoint Dewpoint Depression Visibility Wind Speed Wind Dir Waves Ship Positions

Spaceon02064

Last reported at 2015-Jul-29 21:34 UTC. Time now 2015-Jul-29 22:03 UTC.
Position N 31°22' E 121°43'.

Length 6 m.

Type: Ship. MMSI: 200902064.

Date/timePositionNaut miles runAvg speedWind from/ knotsBaromVisibWave heightAir tempDewpointWater temp
2015-Jul-29 21:34N 31°22' E 121°43'311901.6
2015-Jul-29 21:34N 31°18' E 121°43'2112.1
2015-Jul-29 21:33N 31°19' E 121°42'67834.7
2015-Jul-29 21:28N 32°00' E 120°39'3 3.6
2015-Jul-29 20:33N 32°01' E 120°43'64232175.3
2015-Jul-29 20:33N 31°22' E 121°43'369.3
2015-Jul-29 20:31N 31°19' E 121°42'3 3.5
2015-Jul-29 19:33N 31°22' E 121°43'618848.1
2015-Jul-29 19:33N 32°01' E 120°48'6162.0
2015-Jul-29 18:34N 31°22' E 121°43'5715713.6
2015-Jul-29 18:33N 31°58' E 120°52'571000.0
2015-Jul-29 18:30N 31°19' E 121°42'0 0.0
2015-Jul-29 17:33N 31°19' E 121°42'31184.8
2015-Jul-29 17:33N 31°22' E 121°43'1719969.8
2015-Jul-29 17:33N 31°08' E 121°54'67286.7
2015-Jul-29 17:19N 31°51' E 120°54'6078.6
2015-Jul-29 16:33N 31°13' E 121°48'102211.9
2015-Jul-29 16:33N 31°22' E 121°43'46580.6
2015-Jul-29 16:28N 31°47' E 120°59'4620747.5
2015-Jul-29 16:28N 31°19' E 121°42'3 3.6
2015-Jul-29 15:33N 31°22' E 121°43'0 0.0
2015-Jul-29 14:34N 31°22' E 121°43'0 0.0
2015-Jul-29 13:32N 31°22' E 121°43'35924.1
2015-Jul-29 13:32N 31°19' E 121°42'784.4
2015-Jul-29 13:27N 31°23' E 121°35'18278.9
2015-Jul-29 13:23N 31°35' E 121°19'2530.0
2015-Jul-29 12:34N 31°22' E 121°43'206427.8
2015-Jul-29 12:33N 31°31' E 121°23'91059.5
2015-Jul-29 12:33N 31°25' E 121°31'1111.5
2015-Jul-29 11:33N 31°22' E 121°43'339.4
2015-Jul-29 11:28N 31°19' E 121°42'14126.1
2015-Jul-29 11:22N 31°27' E 121°29'1417.3
2015-Jul-29 10:34N 31°22' E 121°43'133609.8
2015-Jul-29 10:33N 31°26' E 121°29'1312.9
2015-Jul-29 09:33N 31°22' E 121°43'13782.2
2015-Jul-29 09:32N 31°26' E 121°29'1313.4
2015-Jul-29 08:33N 31°22' E 121°43'13756.9
2015-Jul-29 08:32N 31°26' E 121°29'0 0.0
2015-Jul-29 07:31N 31°26' E 121°29'1331.6
2015-Jul-29 07:06N 31°19' E 121°42'1222.2
2015-Jul-29 06:33N 31°26' E 121°30'8 7.5
2015-Jul-29 05:26N 31°32' E 121°23'4 5.0
2015-Jul-29 04:34N 31°37' E 121°23'3 2.9
2015-Jul-29 03:33N 31°39' E 121°21'0 0.0
2015-Jul-29 02:31N 31°39' E 121°21'1970.6
2015-Jul-29 02:15N 31°46' E 121°00'1927.0
2015-Jul-29 01:34N 31°39' E 121°21'195652.0
2015-Jul-29 01:33N 31°46' E 121°00'1918.9
2015-Jul-29 00:34N 31°39' E 121°21'345592.4
2015-Jul-29 00:33N 31°14' E 121°48'52528.9
2015-Jul-29 00:27N 31°46' E 121°00'1921.0
2015-Jul-28 23:34N 31°39' E 121°21'194844.5
2015-Jul-28 23:33N 31°46' E 121°00'1918.9
2015-Jul-28 22:34N 31°39' E 121°21'0 0.0
2015-Jul-28 21:34N 31°39' E 121°21'19121.5
2015-Jul-28 21:24N 31°46' E 121°00'1922.3
2015-Jul-28 20:34N 31°39' E 121°21'1941.4
2015-Jul-28 20:06N 31°46' E 121°00'1934.4
2015-Jul-28 19:33N 31°39' E 121°21'195652.0
2015-Jul-28 19:33N 31°46' E 121°00'1919.0
2015-Jul-28 18:34N 31°39' E 121°21'0 0.0
2015-Jul-28 17:33N 31°39' E 121°21'0 0.0
2015-Jul-28 16:34N 31°39' E 121°21'19402.0
2015-Jul-28 16:31N 31°21' E 121°31'36115.3
2015-Jul-28 16:12N 31°46' E 121°00'1929.3
2015-Jul-28 15:34N 31°39' E 121°21'0 0.0
2015-Jul-28 14:31N 31°39' E 121°21'0 0.0
2015-Jul-28 13:33N 31°39' E 121°21'0 0.0
2015-Jul-28 12:33N 31°39' E 121°21'0 0.0
2015-Jul-28 11:33N 31°39' E 121°21'0 0.0
2015-Jul-28 10:33N 31°39' E 121°21'0 0.0
2015-Jul-28 09:33N 31°39' E 121°21'0 0.0
2015-Jul-28 08:34N 31°39' E 121°21'0 0.0
2015-Jul-28 07:33N 31°39' E 121°21'0 0.0
2015-Jul-28 06:34N 31°39' E 121°21'0 0.0
2015-Jul-28 05:34N 31°39' E 121°21'0 0.0
2015-Jul-28 04:33N 31°39' E 121°21'0 0.0
2015-Jul-28 03:33N 31°39' E 121°21'27279.0
2015-Jul-28 03:28N 31°19' E 121°42'2325.8
2015-Jul-28 02:34N 31°35' E 121°22'6 6.1
2015-Jul-28 01:33N 31°30' E 121°26'7 6.6
2015-Jul-28 00:31N 31°25' E 121°32'6 6.6
2015-Jul-27 23:33N 31°22' E 121°38'5 4.5
2015-Jul-27 22:33N 31°22' E 121°43'0 0.0
2015-Jul-27 21:34N 31°22' E 121°43'0 0.0
2015-Jul-27 20:33N 31°22' E 121°43'0 0.0
2015-Jul-27 19:33N 31°22' E 121°43'3509.1
2015-Jul-27 19:33N 31°19' E 121°42'3 3.2
2015-Jul-27 18:32N 31°22' E 121°43'0 0.0
2015-Jul-27 17:33N 31°22' E 121°43'0 0.0
2015-Jul-27 16:32N 31°22' E 121°43'0 0.0
2015-Jul-27 15:23N 31°22' E 121°43'0 0.0
2015-Jul-27 14:33N 31°22' E 121°43'0 0.0
2015-Jul-27 13:32N 31°22' E 121°43'0 0.0
2015-Jul-27 12:26N 31°22' E 121°43'0 0.0
2015-Jul-27 11:33N 31°22' E 121°43'322.2
2015-Jul-27 11:24N 31°19' E 121°42'3 3.5
2015-Jul-27 10:30N 31°22' E 121°43'0 0.0
2015-Jul-27 09:33N 31°22' E 121°43'0 0.0
2015-Jul-27 08:33N 31°22' E 121°43'0 0.0
2015-Jul-27 07:33N 31°22' E 121°43'3 9.1
2015-Jul-27 07:11N 31°19' E 121°42'3 5.1
2015-Jul-27 06:33N 31°22' E 121°43'0 0.0
2015-Jul-27 05:33N 31°22' E 121°43'0 0.0
2015-Jul-27 04:33N 31°22' E 121°43'1110.8
2015-Jul-27 03:33N 31°21' E 121°31'113525.7
2015-Jul-27 03:33N 31°22' E 121°43'0 0.0
2015-Jul-27 02:33N 31°22' E 121°43'13301.4
2015-Jul-27 02:31N 31°22' E 121°29'11259.2
2015-Jul-27 02:28N 31°19' E 121°42'3 3.6
2015-Jul-27 01:33N 31°22' E 121°43'134740.3
2015-Jul-27 01:33N 31°22' E 121°28'1313.2
2015-Jul-27 00:33N 31°22' E 121°43'134740.3
2015-Jul-27 00:33N 31°22' E 121°28'1313.2
2015-Jul-26 23:33N 31°22' E 121°43'13532.6
2015-Jul-26 23:32N 31°22' E 121°28'12224.7
2015-Jul-26 23:29N 31°19' E 121°42'3 3.5
2015-Jul-26 22:33N 31°22' E 121°43'13697.1
2015-Jul-26 22:32N 31°22' E 121°28'1283.8
2015-Jul-26 22:24N 31°19' E 121°42'1214.0
2015-Jul-26 21:33N 31°22' E 121°28'1347402.6
2015-Jul-26 21:33N 31°22' E 121°43'0 0.0
2015-Jul-26 20:33N 31°22' E 121°43'134309.3
2015-Jul-26 20:33N 31°22' E 121°28'1313.2
2015-Jul-26 19:33N 31°22' E 121°43'134740.3
2015-Jul-26 19:33N 31°22' E 121°28'0 0.0
2015-Jul-26 18:33N 31°22' E 121°28'132370.1
2015-Jul-26 18:33N 31°22' E 121°43'310.0
2015-Jul-26 18:13N 31°19' E 121°42'3 4.9
2015-Jul-26 17:33N 31°22' E 121°43'134740.3
2015-Jul-26 17:33N 31°22' E 121°28'1313.2
2015-Jul-26 16:33N 31°22' E 121°43'134740.3
2015-Jul-26 16:33N 31°22' E 121°28'1313.1
2015-Jul-26 15:33N 31°22' E 121°43'131634.6
2015-Jul-26 15:33N 31°22' E 121°28'1227.6
2015-Jul-26 15:07N 31°19' E 121°42'1221.4
2015-Jul-26 14:33N 31°22' E 121°28'1347402.6
2015-Jul-26 14:33N 31°22' E 121°43'1313.2
2015-Jul-26 13:33N 31°22' E 121°28'13290.8
2015-Jul-26 13:31N 31°22' E 121°43'1313.8
2015-Jul-26 12:33N 31°22' E 121°28'131693.0
2015-Jul-26 12:33N 31°22' E 121°43'0 0.0
2015-Jul-26 11:34N 31°22' E 121°43'133646.4
2015-Jul-26 11:33N 31°22' E 121°28'1313.2
2015-Jul-26 10:33N 31°22' E 121°43'1347402.6
2015-Jul-26 10:33N 31°22' E 121°28'1229.9
2015-Jul-26 10:09N 31°19' E 121°42'3 5.4
2015-Jul-26 09:33N 31°22' E 121°43'139480.5
2015-Jul-26 09:33N 31°22' E 121°28'1313.2
2015-Jul-26 08:33N 31°22' E 121°43'131077.3
2015-Jul-26 08:33N 31°22' E 121°28'1236.0
2015-Jul-26 08:13N 31°19' E 121°42'3 4.9
2015-Jul-26 07:33N 31°22' E 121°43'1311850.6
2015-Jul-26 07:33N 31°22' E 121°28'0 0.0
2015-Jul-26 06:33N 31°22' E 121°28'134740.3
2015-Jul-26 06:33N 31°22' E 121°43'0 0.0
2015-Jul-26 05:34N 31°22' E 121°43'131529.1
2015-Jul-26 05:33N 31°22' E 121°28'1313.3
2015-Jul-26 04:33N 31°22' E 121°43'134309.3
2015-Jul-26 04:33N 31°22' E 121°28'12170.0
2015-Jul-26 04:29N 31°19' E 121°42'3 3.4
2015-Jul-26 03:33N 31°22' E 121°43'13948.1
2015-Jul-26 03:33N 31°22' E 121°28'1313.4
2015-Jul-26 02:34N 31°22' E 121°43'133950.2
2015-Jul-26 02:33N 31°22' E 121°28'1313.2
2015-Jul-26 01:34N 31°22' E 121°43'131529.1
2015-Jul-26 01:33N 31°22' E 121°28'1313.3
2015-Jul-26 00:33N 31°22' E 121°43'13687.0
2015-Jul-26 00:32N 31°22' E 121°28'1313.4
2015-Jul-25 23:33N 31°22' E 121°43'131580.1
2015-Jul-25 23:33N 31°22' E 121°28'1616.2
2015-Jul-25 22:33N 31°19' E 121°47'16525.5
2015-Jul-25 22:32N 31°22' E 121°28'1616.5
2015-Jul-25 21:34N 31°19' E 121°46'16436.5
2015-Jul-25 21:31N 31°22' E 121°28'1616.6
2015-Jul-25 20:33N 31°19' E 121°46'165761.9
2015-Jul-25 20:33N 31°22' E 121°28'2 8.0
2015-Jul-25 20:19N 31°23' E 121°30'46288.8
2015-Jul-25 20:09N 31°56' E 120°52'5998.8
2015-Jul-25 19:33N 31°19' E 121°46'5768498.1
2015-Jul-25 19:33N 31°54' E 120°53'4422443.0
2015-Jul-25 19:33N 31°22' E 121°28'1615.9
2015-Jul-25 18:33N 31°19' E 121°46'166402.5
2015-Jul-25 18:33N 31°22' E 121°28'1274.6
2015-Jul-25 18:23N 31°19' E 121°42'4 5.1
2015-Jul-25 17:33N 31°19' E 121°46'1628809.6
2015-Jul-25 17:33N 31°22' E 121°28'1270.1
2015-Jul-25 17:23N 31°19' E 121°42'4 5.1
2015-Jul-25 16:33N 31°19' E 121°46'0 0.0
2015-Jul-25 15:33N 31°19' E 121°46'165238.1
2015-Jul-25 15:33N 31°22' E 121°28'1616.0
2015-Jul-25 14:33N 31°19' E 121°46'162743.8
2015-Jul-25 14:33N 31°22' E 121°28'1236.1
2015-Jul-25 14:13N 31°19' E 121°42'4 6.4
2015-Jul-25 13:33N 31°19' E 121°46'161920.6
2015-Jul-25 13:33N 31°22' E 121°28'8147.4
2015-Jul-25 13:30N 31°22' E 121°37'8 8.8
2015-Jul-25 12:33N 31°19' E 121°46'267790.3
2015-Jul-25 12:33N 31°33' E 121°21'132710.6
2015-Jul-25 12:33N 31°22' E 121°28'3238.5
2015-Jul-25 12:32N 31°23' E 121°30'1414.6
2015-Jul-25 11:33N 31°19' E 121°46'163032.6
2015-Jul-25 11:33N 31°22' E 121°28'621.3
2015-Jul-25 11:17N 31°27' E 121°28'6 8.0
2015-Jul-25 10:33N 31°22' E 121°28'167202.4
2015-Jul-25 10:33N 31°19' E 121°46'121809.2
2015-Jul-25 10:33N 31°24' E 121°34'1212.2
2015-Jul-25 09:33N 31°19' E 121°46'161152.4
2015-Jul-25 09:33N 31°22' E 121°28'12212.3
2015-Jul-25 09:29N 31°20' E 121°42'4 4.4
2015-Jul-25 08:33N 31°19' E 121°46'16823.2
2015-Jul-25 08:32N 31°22' E 121°28'19282.4
2015-Jul-25 08:28N 31°14' E 121°48'5 5.9
2015-Jul-25 07:33N 31°19' E 121°46'16633.2
2015-Jul-25 07:32N 31°22' E 121°28'1616.4
2015-Jul-25 06:33N 31°19' E 121°46'161858.8
2015-Jul-25 06:33N 31°22' E 121°28'1616.1
2015-Jul-25 05:33N 31°19' E 121°46'165762.3
2015-Jul-25 05:33N 31°22' E 121°28'5386.1
2015-Jul-25 05:33N 31°27' E 121°28'1717.5
2015-Jul-25 04:34N 31°19' E 121°46'164801.9
2015-Jul-25 04:33N 31°22' E 121°28'1616.1
2015-Jul-25 03:33N 31°19' E 121°46'165762.3
2015-Jul-25 03:33N 31°22' E 121°28'1616.1
2015-Jul-25 02:33N 31°19' E 121°46'166402.5
2015-Jul-25 02:33N 31°22' E 121°28'1616.0
2015-Jul-25 01:33N 31°19' E 121°46'162619.2
2015-Jul-25 01:33N 31°22' E 121°28'1616.2
2015-Jul-25 00:33N 31°19' E 121°47'165780.8
2015-Jul-25 00:33N 31°22' E 121°28'1616.0
2015-Jul-24 23:33N 31°19' E 121°47'0 0.0
2015-Jul-24 22:33N 31°19' E 121°47'16814.3
2015-Jul-24 22:32N 31°22' E 121°28'1616.4
2015-Jul-24 21:33N 31°19' E 121°47'166423.5
2015-Jul-24 21:33N 31°22' E 121°28'1616.1
2015-Jul-24 20:33N 31°19' E 121°47'161926.9
2015-Jul-24 20:33N 31°22' E 121°28'0 0.0
2015-Jul-24 19:33N 31°22' E 121°28'16814.3
2015-Jul-24 19:32N 31°19' E 121°47'14286.5
2015-Jul-24 19:29N 31°23' E 121°30'1415.5
2015-Jul-24 18:33N 31°19' E 121°47'16635.3
2015-Jul-24 18:32N 31°22' E 121°28'1616.5
2015-Jul-24 17:33N 31°19' E 121°47'165781.2
2015-Jul-24 17:33N 31°22' E 121°28'1616.1
2015-Jul-24 16:33N 31°19' E 121°47'1628906.0
2015-Jul-24 16:33N 31°22' E 121°28'1616.1
2015-Jul-24 15:33N 31°19' E 121°47'16731.8
2015-Jul-24 15:32N 31°22' E 121°28'0 0.0
2015-Jul-24 14:33N 31°22' E 121°28'163613.2
2015-Jul-24 14:33N 31°19' E 121°47'0 0.0
2015-Jul-24 13:33N 31°19' E 121°47'161445.3
2015-Jul-24 13:33N 31°22' E 121°28'1616.2
2015-Jul-24 12:33N 31°19' E 121°47'16932.5
2015-Jul-24 12:32N 31°22' E 121°28'1313.4
2015-Jul-24 11:34N 31°22' E 121°43'134740.3
2015-Jul-24 11:33N 31°22' E 121°28'1313.2
2015-Jul-24 10:34N 31°22' E 121°43'131529.1
2015-Jul-24 10:33N 31°22' E 121°28'1313.3
2015-Jul-24 09:34N 31°22' E 121°43'134309.3
2015-Jul-24 09:33N 31°22' E 121°28'0 0.0
2015-Jul-24 08:33N 31°22' E 121°28'134740.3
2015-Jul-24 08:33N 31°22' E 121°43'1313.2
2015-Jul-24 07:33N 31°22' E 121°28'133618.0
2015-Jul-24 07:33N 31°22' E 121°43'1313.1
2015-Jul-24 06:33N 31°22' E 121°28'132766.8
2015-Jul-24 06:33N 31°22' E 121°43'0 0.0
2015-Jul-24 05:33N 31°22' E 121°43'13761.6
2015-Jul-24 05:32N 31°22' E 121°28'1313.3
2015-Jul-24 04:33N 31°22' E 121°43'132248.6
2015-Jul-24 04:33N 31°22' E 121°28'0 0.0
2015-Jul-24 03:33N 31°22' E 121°28'132623.3
2015-Jul-24 03:33N 31°22' E 121°43'1313.2
2015-Jul-24 02:33N 31°22' E 121°28'134721.9
2015-Jul-24 02:33N 31°22' E 121°43'1514.6
2015-Jul-24 01:33N 31°21' E 121°26'151078.3
2015-Jul-24 01:32N 31°22' E 121°43'0 0.0
2015-Jul-24 00:33N 31°22' E 121°43'15292.9
2015-Jul-24 00:30N 31°21' E 121°26'1515.5
2015-Jul-23 23:33N 31°22' E 121°43'152790.5
2015-Jul-23 23:33N 31°21' E 121°26'1514.8
2015-Jul-23 22:33N 31°22' E 121°43'152651.0
2015-Jul-23 22:33N 31°21' E 121°26'1514.8
2015-Jul-23 21:33N 31°22' E 121°43'151039.6
2015-Jul-23 21:33N 31°21' E 121°26'1514.9
2015-Jul-23 20:33N 31°22' E 121°43'151325.5
2015-Jul-23 20:33N 31°21' E 121°26'1514.9
2015-Jul-23 19:34N 31°22' E 121°43'15348.8
2015-Jul-23 19:31N 31°21' E 121°26'726.7
2015-Jul-23 19:15N 31°14' E 121°29'1420.2
2015-Jul-23 18:33N 31°22' E 121°43'1526509.5
2015-Jul-23 18:33N 31°21' E 121°26'1514.8
2015-Jul-23 17:33N 31°22' E 121°43'155891.1
2015-Jul-23 17:33N 31°21' E 121°26'6129.4
2015-Jul-23 17:31N 31°20' E 121°33'9 9.4
2015-Jul-23 16:33N 31°22' E 121°43'15662.7
2015-Jul-23 16:32N 31°21' E 121°26'42793.3
2015-Jul-23 16:32N 31°23' E 121°30'1111.7
2015-Jul-23 15:34N 31°22' E 121°43'154820.0
2015-Jul-23 15:33N 31°21' E 121°26'6194.8
2015-Jul-23 15:32N 31°26' E 121°29'6 5.8
2015-Jul-23 14:33N 31°21' E 121°26'151082.0
2015-Jul-23 14:32N 31°22' E 121°43'0 0.0
2015-Jul-23 13:33N 31°22' E 121°43'153118.8
2015-Jul-23 13:33N 31°21' E 121°26'1514.9
2015-Jul-23 12:33N 31°22' E 121°43'151656.9
2015-Jul-23 12:33N 31°21' E 121°26'1514.9
2015-Jul-23 11:34N 31°22' E 121°43'15424.2
2015-Jul-23 11:31N 31°21' E 121°26'1515.3
2015-Jul-23 10:34N 31°22' E 121°43'151039.6
2015-Jul-23 10:33N 31°21' E 121°26'1514.9
2015-Jul-23 09:33N 31°22' E 121°43'154819.9
2015-Jul-23 09:33N 31°21' E 121°26'1514.9
2015-Jul-23 08:33N 31°22' E 121°43'1553374.1
2015-Jul-23 08:33N 31°21' E 121°26'0 0.0
2015-Jul-23 07:32N 31°21' E 121°26'15118.6
2015-Jul-23 07:24N 31°22' E 121°43'0 0.0
2015-Jul-23 06:33N 31°22' E 121°43'1526595.5
2015-Jul-23 06:33N 31°21' E 121°26'4608.6
2015-Jul-23 06:33N 31°23' E 121°30'1111.5
2015-Jul-23 05:34N 31°22' E 121°43'154835.5
2015-Jul-23 05:33N 31°21' E 121°26'1514.8
2015-Jul-23 04:33N 31°22' E 121°43'147203.9
2015-Jul-23 04:33N 31°14' E 121°29'7736.4
2015-Jul-23 04:33N 31°21' E 121°26'1514.9
2015-Jul-23 03:33N 31°22' E 121°43'158806.0
2015-Jul-23 03:33N 31°21' E 121°26'1343.3
2015-Jul-23 03:15N 31°08' E 121°28'1927.3
2015-Jul-23 02:33N 31°22' E 121°43'151148.6
2015-Jul-23 02:33N 31°21' E 121°26'0 0.0
2015-Jul-23 01:33N 31°21' E 121°26'1513209.0
2015-Jul-23 01:33N 31°22' E 121°43'1514.7
2015-Jul-23 00:33N 31°21' E 121°26'1510567.2
2015-Jul-23 00:33N 31°22' E 121°43'0 0.0
2015-Jul-22 23:33N 31°22' E 121°43'153522.4
2015-Jul-22 23:33N 31°21' E 121°26'7426.3
2015-Jul-22 23:32N 31°15' E 121°30'1313.2
2015-Jul-22 22:33N 31°22' E 121°43'15960.7
2015-Jul-22 22:32N 31°21' E 121°26'0 0.0
2015-Jul-22 21:33N 31°21' E 121°26'151601.1
2015-Jul-22 21:33N 31°22' E 121°43'1514.7
2015-Jul-22 20:33N 31°21' E 121°26'1513209.0
2015-Jul-22 20:33N 31°22' E 121°43'1514.8
2015-Jul-22 19:33N 31°21' E 121°26'152032.2
2015-Jul-22 19:33N 31°22' E 121°43'0 0.0
2015-Jul-22 18:33N 31°22' E 121°43'223119.0
2015-Jul-22 18:33N 31°04' E 121°28'2221.7
2015-Jul-22 17:33N 31°22' E 121°43'15812.9
2015-Jul-22 17:32N 31°21' E 121°26'0 0.0
2015-Jul-22 16:33N 31°21' E 121°26'153302.2
2015-Jul-22 16:33N 31°22' E 121°43'2260.6
2015-Jul-22 16:12N 31°04' E 121°28'2234.0
2015-Jul-22 15:33N 31°22' E 121°43'158806.0
2015-Jul-22 15:33N 31°21' E 121°26'0 0.0
2015-Jul-22 14:33N 31°21' E 121°26'1517612.0
2015-Jul-22 14:33N 31°22' E 121°43'1514.6
2015-Jul-22 13:33N 31°21' E 121°26'15254.0
2015-Jul-22 13:29N 31°22' E 121°43'0 0.0
2015-Jul-22 12:33N 31°22' E 121°43'255702.5
2015-Jul-22 12:33N 31°01' E 121°27'208153.8
2015-Jul-22 12:33N 31°21' E 121°26'1514.8
2015-Jul-22 11:33N 31°22' E 121°43'158806.0
2015-Jul-22 11:33N 31°21' E 121°26'23194.4
2015-Jul-22 11:26N 30°59' E 121°19'3134.7
2015-Jul-22 10:33N 31°22' E 121°43'151100.7
2015-Jul-22 10:33N 31°21' E 121°26'232810.5
2015-Jul-22 10:32N 30°59' E 121°20'3030.9
2015-Jul-22 09:33N 31°22' E 121°43'151433.0
2015-Jul-22 09:33N 31°21' E 121°26'0 0.0
2015-Jul-22 08:33N 31°21' E 121°26'1510604.0
2015-Jul-22 08:33N 31°22' E 121°43'0 0.0
2015-Jul-22 07:34N 31°22' E 121°43'155436.4
2015-Jul-22 07:33N 31°21' E 121°26'1515.1
2015-Jul-22 06:33N 31°22' E 121°43'15372.3
2015-Jul-22 06:31N 31°21' E 121°26'1515.7
2015-Jul-22 05:33N 31°22' E 121°43'15811.4
2015-Jul-22 05:32N 31°21' E 121°26'1515.3
2015-Jul-22 04:33N 31°22' E 121°43'153397.7
2015-Jul-22 04:33N 31°21' E 121°26'1515.2
2015-Jul-22 03:33N 31°22' E 121°43'15836.4
2015-Jul-22 03:32N 31°21' E 121°26'1515.4
2015-Jul-22 02:33N 31°22' E 121°43'15241.6
2015-Jul-22 02:30N 31°21' E 121°26'1516.1
2015-Jul-22 01:33N 31°22' E 121°43'357860.9
2015-Jul-22 01:33N 30°59' E 121°12'24458.6
2015-Jul-22 01:30N 31°21' E 121°26'2425.8
2015-Jul-22 00:34N 30°59' E 121°12'248758.5
2015-Jul-22 00:33N 31°21' E 121°26'1513591.0
2015-Jul-22 00:33N 31°22' E 121°43'0 0.0
2015-Jul-21 23:33N 31°22' E 121°43'15617.8
2015-Jul-21 23:32N 31°21' E 121°26'1515.5
2015-Jul-21 22:33N 31°22' E 121°43'152013.5
2015-Jul-21 22:33N 31°21' E 121°26'1515.2
2015-Jul-21 21:33N 31°22' E 121°43'15498.8
2015-Jul-21 21:32N 31°21' E 121°26'1515.5
2015-Jul-21 20:33N 31°22' E 121°43'15799.5
2015-Jul-21 20:32N 31°21' E 121°26'1515.5
2015-Jul-21 19:33N 31°22' E 121°43'155958.3
2015-Jul-21 19:33N 31°21' E 121°26'1514.9
2015-Jul-21 18:33N 31°22' E 121°43'151124.1
2015-Jul-21 18:33N 31°21' E 121°26'1514.8
2015-Jul-21 17:33N 31°22' E 121°43'153522.3
2015-Jul-21 17:33N 31°21' E 121°26'1514.6
2015-Jul-21 16:33N 31°22' E 121°43'152106.0
2015-Jul-21 16:32N 31°21' E 121°26'0 0.0
2015-Jul-21 15:33N 31°21' E 121°26'155850.1
2015-Jul-21 15:33N 31°22' E 121°43'0 0.0
2015-Jul-21 14:33N 31°22' E 121°43'151880.4
2015-Jul-21 14:33N 31°21' E 121°26'1514.6
2015-Jul-21 13:33N 31°22' E 121°43'152106.0
2015-Jul-21 13:33N 31°21' E 121°26'1514.7
2015-Jul-21 12:33N 31°22' E 121°43'15822.7
2015-Jul-21 12:32N 31°21' E 121°26'1514.9
2015-Jul-21 11:33N 31°22' E 121°43'1555.0
2015-Jul-21 11:17N 31°21' E 121°26'1519.9
2015-Jul-21 10:33N 31°22' E 121°43'15550.4
2015-Jul-21 10:32N 31°21' E 121°26'0 0.0
2015-Jul-21 09:33N 31°21' E 121°26'152113.4
2015-Jul-21 09:33N 31°22' E 121°43'0 0.0
2015-Jul-21 08:33N 31°22' E 121°43'136798.4
2015-Jul-21 08:33N 31°22' E 121°28'1313.2
2015-Jul-21 07:33N 31°22' E 121°43'12126.1
2015-Jul-21 07:28N 31°25' E 121°30'1213.4
2015-Jul-21 06:33N 31°22' E 121°43'246627.4
2015-Jul-21 06:33N 31°34' E 121°19'727.1
2015-Jul-21 06:18N 31°29' E 121°25'1723.5
2015-Jul-21 05:33N 31°22' E 121°43'1429.6
2015-Jul-21 05:04N 31°28' E 121°28'1427.9
2015-Jul-21 04:33N 31°22' E 121°43'11604.3
2015-Jul-21 04:32N 31°25' E 121°31'5 5.2
2015-Jul-21 03:33N 31°21' E 121°33'91309.9
2015-Jul-21 03:33N 31°22' E 121°43'0 0.0
2015-Jul-21 02:33N 31°22' E 121°43'452302.1
2015-Jul-21 02:32N 31°46' E 120°60'413164.9
2015-Jul-21 02:32N 31°15' E 121°31'1313.1
2015-Jul-21 01:33N 31°22' E 121°43'53327.8
2015-Jul-21 01:24N 31°52' E 120°53'6 7.6
2015-Jul-21 00:33N 31°58' E 120°50'64371.9
2015-Jul-21 00:23N 31°04' E 121°28'2226.7
2015-Jul-20 23:33N 31°22' E 121°43'651606.6
2015-Jul-20 23:31N 32°00' E 120°42'6567.4
2015-Jul-20 22:33N 31°22' E 121°43'0 0.0
2015-Jul-20 21:33N 31°22' E 121°43'0 0.0
2015-Jul-20 20:33N 31°22' E 121°43'0 0.0
2015-Jul-20 19:33N 31°22' E 121°43'801371.6
2015-Jul-20 19:30N 31°58' E 120°19'7 7.7
2015-Jul-20 18:33N 31°56' E 120°11'8614726.1
2015-Jul-20 18:33N 31°22' E 121°43'26113.8
2015-Jul-20 18:19N 31°01' E 121°26'2632.4
2015-Jul-20 17:32N 31°22' E 121°43'0 0.0
2015-Jul-20 16:33N 31°22' E 121°43'347135.8
2015-Jul-20 16:33N 30°58' E 121°16'3433.9
2015-Jul-20 15:33N 31°22' E 121°43'0 0.0
2015-Jul-20 14:33N 31°22' E 121°43'0 0.0
2015-Jul-20 13:32N 31°22' E 121°43'0 0.4
2015-Jul-20 12:33N 31°22' E 121°43'7 7.4
2015-Jul-20 11:33N 31°23' E 121°34'3 3.2
2015-Jul-20 10:33N 31°21' E 121°32'4 4.0
2015-Jul-20 09:33N 31°17' E 121°34'0 0.0
2015-Jul-20 08:27N 31°17' E 121°34'  
Track history (hours):
 
Tides and Currents Weather Stations Pressure Air Temp Water Temp Dewpoint Dewpoint Depression Visibility Wind Speed Wind Dir Waves Ship Positions

Spaceon02064

Last reported at 2015-Jul-29 21:34 UTC. Time now 2015-Jul-29 22:03 UTC.
Position N 31°22' E 121°43'.

Length 6 m.

Type: Ship. MMSI: 200902064.

Date/timePositionNaut miles runAvg speedWind from/ knotsBaromVisibWave heightAir tempDewpointWater temp
2015-Jul-29 21:34N 31°22' E 121°43'311901.6
2015-Jul-29 21:34N 31°18' E 121°43'2112.1
2015-Jul-29 21:33N 31°19' E 121°42'67834.7
2015-Jul-29 21:28N 32°00' E 120°39'3 3.6
2015-Jul-29 20:33N 32°01' E 120°43'64232175.3
2015-Jul-29 20:33N 31°22' E 121°43'369.3
2015-Jul-29 20:31N 31°19' E 121°42'3 3.5
2015-Jul-29 19:33N 31°22' E 121°43'618848.1
2015-Jul-29 19:33N 32°01' E 120°48'6162.0
2015-Jul-29 18:34N 31°22' E 121°43'5715713.6
2015-Jul-29 18:33N 31°58' E 120°52'571000.0
2015-Jul-29 18:30N 31°19' E 121°42'0 0.0
2015-Jul-29 17:33N 31°19' E 121°42'31184.8
2015-Jul-29 17:33N 31°22' E 121°43'1719969.8
2015-Jul-29 17:33N 31°08' E 121°54'67286.7
2015-Jul-29 17:19N 31°51' E 120°54'6078.6
2015-Jul-29 16:33N 31°13' E 121°48'102211.9
2015-Jul-29 16:33N 31°22' E 121°43'46580.6
2015-Jul-29 16:28N 31°47' E 120°59'4620747.5
2015-Jul-29 16:28N 31°19' E 121°42'3 3.6
2015-Jul-29 15:33N 31°22' E 121°43'0 0.0
2015-Jul-29 14:34N 31°22' E 121°43'0 0.0
2015-Jul-29 13:32N 31°22' E 121°43'35924.1
2015-Jul-29 13:32N 31°19' E 121°42'784.4
2015-Jul-29 13:27N 31°23' E 121°35'18278.9
2015-Jul-29 13:23N 31°35' E 121°19'2530.0
2015-Jul-29 12:34N 31°22' E 121°43'206427.8
2015-Jul-29 12:33N 31°31' E 121°23'91059.5
2015-Jul-29 12:33N 31°25' E 121°31'1111.5
2015-Jul-29 11:33N 31°22' E 121°43'339.4
2015-Jul-29 11:28N 31°19' E 121°42'14126.1
2015-Jul-29 11:22N 31°27' E 121°29'1417.3
2015-Jul-29 10:34N 31°22' E 121°43'133609.8
2015-Jul-29 10:33N 31°26' E 121°29'1312.9
2015-Jul-29 09:33N 31°22' E 121°43'13782.2
2015-Jul-29 09:32N 31°26' E 121°29'1313.4
2015-Jul-29 08:33N 31°22' E 121°43'13756.9
2015-Jul-29 08:32N 31°26' E 121°29'0 0.0
2015-Jul-29 07:31N 31°26' E 121°29'1331.6
2015-Jul-29 07:06N 31°19' E 121°42'1222.2
2015-Jul-29 06:33N 31°26' E 121°30'8 7.5
2015-Jul-29 05:26N 31°32' E 121°23'4 5.0
2015-Jul-29 04:34N 31°37' E 121°23'3 2.9
2015-Jul-29 03:33N 31°39' E 121°21'0 0.0
2015-Jul-29 02:31N 31°39' E 121°21'1970.6
2015-Jul-29 02:15N 31°46' E 121°00'1927.0
2015-Jul-29 01:34N 31°39' E 121°21'195652.0
2015-Jul-29 01:33N 31°46' E 121°00'1918.9
2015-Jul-29 00:34N 31°39' E 121°21'345592.4
2015-Jul-29 00:33N 31°14' E 121°48'52528.9
2015-Jul-29 00:27N 31°46' E 121°00'1921.0
2015-Jul-28 23:34N 31°39' E 121°21'194844.5
2015-Jul-28 23:33N 31°46' E 121°00'1918.9
2015-Jul-28 22:34N 31°39' E 121°21'0 0.0
2015-Jul-28 21:34N 31°39' E 121°21'19121.5
2015-Jul-28 21:24N 31°46' E 121°00'1922.3
2015-Jul-28 20:34N 31°39' E 121°21'1941.4
2015-Jul-28 20:06N 31°46' E 121°00'1934.4
2015-Jul-28 19:33N 31°39' E 121°21'195652.0
2015-Jul-28 19:33N 31°46' E 121°00'1919.0
2015-Jul-28 18:34N 31°39' E 121°21'0 0.0
2015-Jul-28 17:33N 31°39' E 121°21'0 0.0
2015-Jul-28 16:34N 31°39' E 121°21'19402.0
2015-Jul-28 16:31N 31°21' E 121°31'36115.3
2015-Jul-28 16:12N 31°46' E 121°00'1929.3
2015-Jul-28 15:34N 31°39' E 121°21'0 0.0
2015-Jul-28 14:31N 31°39' E 121°21'0 0.0
2015-Jul-28 13:33N 31°39' E 121°21'0 0.0
2015-Jul-28 12:33N 31°39' E 121°21'0 0.0
2015-Jul-28 11:33N 31°39' E 121°21'0 0.0
2015-Jul-28 10:33N 31°39' E 121°21'0 0.0
2015-Jul-28 09:33N 31°39' E 121°21'0 0.0
2015-Jul-28 08:34N 31°39' E 121°21'0 0.0
2015-Jul-28 07:33N 31°39' E 121°21'0 0.0
2015-Jul-28 06:34N 31°39' E 121°21'0 0.0
2015-Jul-28 05:34N 31°39' E 121°21'0 0.0
2015-Jul-28 04:33N 31°39' E 121°21'0 0.0
2015-Jul-28 03:33N 31°39' E 121°21'27279.0
2015-Jul-28 03:28N 31°19' E 121°42'2325.8
2015-Jul-28 02:34N 31°35' E 121°22'6 6.1
2015-Jul-28 01:33N 31°30' E 121°26'7 6.6
2015-Jul-28 00:31N 31°25' E 121°32'6 6.6
2015-Jul-27 23:33N 31°22' E 121°38'5 4.5
2015-Jul-27 22:33N 31°22' E 121°43'0 0.0
2015-Jul-27 21:34N 31°22' E 121°43'0 0.0
2015-Jul-27 20:33N 31°22' E 121°43'0 0.0
2015-Jul-27 19:33N 31°22' E 121°43'3509.1
2015-Jul-27 19:33N 31°19' E 121°42'3 3.2
2015-Jul-27 18:32N 31°22' E 121°43'0 0.0
2015-Jul-27 17:33N 31°22' E 121°43'0 0.0
2015-Jul-27 16:32N 31°22' E 121°43'0 0.0
2015-Jul-27 15:23N 31°22' E 121°43'0 0.0
2015-Jul-27 14:33N 31°22' E 121°43'0 0.0
2015-Jul-27 13:32N 31°22' E 121°43'0 0.0
2015-Jul-27 12:26N 31°22' E 121°43'0 0.0
2015-Jul-27 11:33N 31°22' E 121°43'322.2
2015-Jul-27 11:24N 31°19' E 121°42'3 3.5
2015-Jul-27 10:30N 31°22' E 121°43'0 0.0
2015-Jul-27 09:33N 31°22' E 121°43'0 0.0
2015-Jul-27 08:33N 31°22' E 121°43'0 0.0
2015-Jul-27 07:33N 31°22' E 121°43'3 9.1
2015-Jul-27 07:11N 31°19' E 121°42'3 5.1
2015-Jul-27 06:33N 31°22' E 121°43'0 0.0
2015-Jul-27 05:33N 31°22' E 121°43'0 0.0
2015-Jul-27 04:33N 31°22' E 121°43'1110.8
2015-Jul-27 03:33N 31°21' E 121°31'113525.7
2015-Jul-27 03:33N 31°22' E 121°43'0 0.0
2015-Jul-27 02:33N 31°22' E 121°43'13301.4
2015-Jul-27 02:31N 31°22' E 121°29'11259.2
2015-Jul-27 02:28N 31°19' E 121°42'3 3.6
2015-Jul-27 01:33N 31°22' E 121°43'134740.3
2015-Jul-27 01:33N 31°22' E 121°28'1313.2
2015-Jul-27 00:33N 31°22' E 121°43'134740.3
2015-Jul-27 00:33N 31°22' E 121°28'1313.2
2015-Jul-26 23:33N 31°22' E 121°43'13532.6
2015-Jul-26 23:32N 31°22' E 121°28'12224.7
2015-Jul-26 23:29N 31°19' E 121°42'3 3.5
2015-Jul-26 22:33N 31°22' E 121°43'13697.1
2015-Jul-26 22:32N 31°22' E 121°28'1283.8
2015-Jul-26 22:24N 31°19' E 121°42'1214.0
2015-Jul-26 21:33N 31°22' E 121°28'1347402.6
2015-Jul-26 21:33N 31°22' E 121°43'0 0.0
2015-Jul-26 20:33N 31°22' E 121°43'134309.3
2015-Jul-26 20:33N 31°22' E 121°28'1313.2
2015-Jul-26 19:33N 31°22' E 121°43'134740.3
2015-Jul-26 19:33N 31°22' E 121°28'0 0.0
2015-Jul-26 18:33N 31°22' E 121°28'132370.1
2015-Jul-26 18:33N 31°22' E 121°43'310.0
2015-Jul-26 18:13N 31°19' E 121°42'3 4.9
2015-Jul-26 17:33N 31°22' E 121°43'134740.3
2015-Jul-26 17:33N 31°22' E 121°28'1313.2
2015-Jul-26 16:33N 31°22' E 121°43'134740.3
2015-Jul-26 16:33N 31°22' E 121°28'1313.1
2015-Jul-26 15:33N 31°22' E 121°43'131634.6
2015-Jul-26 15:33N 31°22' E 121°28'1227.6
2015-Jul-26 15:07N 31°19' E 121°42'1221.4
2015-Jul-26 14:33N 31°22' E 121°28'1347402.6
2015-Jul-26 14:33N 31°22' E 121°43'1313.2
2015-Jul-26 13:33N 31°22' E 121°28'13290.8
2015-Jul-26 13:31N 31°22' E 121°43'1313.8
2015-Jul-26 12:33N 31°22' E 121°28'131693.0
2015-Jul-26 12:33N 31°22' E 121°43'0 0.0
2015-Jul-26 11:34N 31°22' E 121°43'133646.4
2015-Jul-26 11:33N 31°22' E 121°28'1313.2
2015-Jul-26 10:33N 31°22' E 121°43'1347402.6
2015-Jul-26 10:33N 31°22' E 121°28'1229.9
2015-Jul-26 10:09N 31°19' E 121°42'3 5.4
2015-Jul-26 09:33N 31°22' E 121°43'139480.5
2015-Jul-26 09:33N 31°22' E 121°28'1313.2
2015-Jul-26 08:33N 31°22' E 121°43'131077.3
2015-Jul-26 08:33N 31°22' E 121°28'1236.0
2015-Jul-26 08:13N 31°19' E 121°42'3 4.9
2015-Jul-26 07:33N 31°22' E 121°43'1311850.6
2015-Jul-26 07:33N 31°22' E 121°28'0 0.0
2015-Jul-26 06:33N 31°22' E 121°28'134740.3
2015-Jul-26 06:33N 31°22' E 121°43'0 0.0
2015-Jul-26 05:34N 31°22' E 121°43'131529.1
2015-Jul-26 05:33N 31°22' E 121°28'1313.3
2015-Jul-26 04:33N 31°22' E 121°43'134309.3
2015-Jul-26 04:33N 31°22' E 121°28'12170.0
2015-Jul-26 04:29N 31°19' E 121°42'3 3.4
2015-Jul-26 03:33N 31°22' E 121°43'13948.1
2015-Jul-26 03:33N 31°22' E 121°28'1313.4
2015-Jul-26 02:34N 31°22' E 121°43'133950.2
2015-Jul-26 02:33N 31°22' E 121°28'1313.2
2015-Jul-26 01:34N 31°22' E 121°43'131529.1
2015-Jul-26 01:33N 31°22' E 121°28'1313.3
2015-Jul-26 00:33N 31°22' E 121°43'13687.0
2015-Jul-26 00:32N 31°22' E 121°28'1313.4
2015-Jul-25 23:33N 31°22' E 121°43'131580.1
2015-Jul-25 23:33N 31°22' E 121°28'1616.2
2015-Jul-25 22:33N 31°19' E 121°47'16525.5
2015-Jul-25 22:32N 31°22' E 121°28'1616.5
2015-Jul-25 21:34N 31°19' E 121°46'16436.5
2015-Jul-25 21:31N 31°22' E 121°28'1616.6
2015-Jul-25 20:33N 31°19' E 121°46'165761.9
2015-Jul-25 20:33N 31°22' E 121°28'2 8.0
2015-Jul-25 20:19N 31°23' E 121°30'46288.8
2015-Jul-25 20:09N 31°56' E 120°52'5998.8
2015-Jul-25 19:33N 31°19' E 121°46'5768498.1
2015-Jul-25 19:33N 31°54' E 120°53'4422443.0
2015-Jul-25 19:33N 31°22' E 121°28'1615.9
2015-Jul-25 18:33N 31°19' E 121°46'166402.5
2015-Jul-25 18:33N 31°22' E 121°28'1274.6
2015-Jul-25 18:23N 31°19' E 121°42'4 5.1
2015-Jul-25 17:33N 31°19' E 121°46'1628809.6
2015-Jul-25 17:33N 31°22' E 121°28'1270.1
2015-Jul-25 17:23N 31°19' E 121°42'4 5.1
2015-Jul-25 16:33N 31°19' E 121°46'0 0.0
2015-Jul-25 15:33N 31°19' E 121°46'165238.1
2015-Jul-25 15:33N 31°22' E 121°28'1616.0
2015-Jul-25 14:33N 31°19' E 121°46'162743.8
2015-Jul-25 14:33N 31°22' E 121°28'1236.1
2015-Jul-25 14:13N 31°19' E 121°42'4 6.4
2015-Jul-25 13:33N 31°19' E 121°46'161920.6
2015-Jul-25 13:33N 31°22' E 121°28'8147.4
2015-Jul-25 13:30N 31°22' E 121°37'8 8.8
2015-Jul-25 12:33N 31°19' E 121°46'267790.3
2015-Jul-25 12:33N 31°33' E 121°21'132710.6
2015-Jul-25 12:33N 31°22' E 121°28'3238.5
2015-Jul-25 12:32N 31°23' E 121°30'1414.6
2015-Jul-25 11:33N 31°19' E 121°46'163032.6
2015-Jul-25 11:33N 31°22' E 121°28'621.3
2015-Jul-25 11:17N 31°27' E 121°28'6 8.0
2015-Jul-25 10:33N 31°22' E 121°28'167202.4
2015-Jul-25 10:33N 31°19' E 121°46'121809.2
2015-Jul-25 10:33N 31°24' E 121°34'1212.2
2015-Jul-25 09:33N 31°19' E 121°46'161152.4
2015-Jul-25 09:33N 31°22' E 121°28'12212.3
2015-Jul-25 09:29N 31°20' E 121°42'4 4.4
2015-Jul-25 08:33N 31°19' E 121°46'16823.2
2015-Jul-25 08:32N 31°22' E 121°28'19282.4
2015-Jul-25 08:28N 31°14' E 121°48'5 5.9
2015-Jul-25 07:33N 31°19' E 121°46'16633.2
2015-Jul-25 07:32N 31°22' E 121°28'1616.4
2015-Jul-25 06:33N 31°19' E 121°46'161858.8
2015-Jul-25 06:33N 31°22' E 121°28'1616.1
2015-Jul-25 05:33N 31°19' E 121°46'165762.3
2015-Jul-25 05:33N 31°22' E 121°28'5386.1
2015-Jul-25 05:33N 31°27' E 121°28'1717.5
2015-Jul-25 04:34N 31°19' E 121°46'164801.9
2015-Jul-25 04:33N 31°22' E 121°28'1616.1
2015-Jul-25 03:33N 31°19' E 121°46'165762.3
2015-Jul-25 03:33N 31°22' E 121°28'1616.1
2015-Jul-25 02:33N 31°19' E 121°46'166402.5
2015-Jul-25 02:33N 31°22' E 121°28'1616.0
2015-Jul-25 01:33N 31°19' E 121°46'162619.2
2015-Jul-25 01:33N 31°22' E 121°28'1616.2
2015-Jul-25 00:33N 31°19' E 121°47'165780.8
2015-Jul-25 00:33N 31°22' E 121°28'1616.0
2015-Jul-24 23:33N 31°19' E 121°47'0 0.0
2015-Jul-24 22:33N 31°19' E 121°47'16814.3
2015-Jul-24 22:32N 31°22' E 121°28'1616.4
2015-Jul-24 21:33N 31°19' E 121°47'166423.5
2015-Jul-24 21:33N 31°22' E 121°28'1616.1
2015-Jul-24 20:33N 31°19' E 121°47'161926.9
2015-Jul-24 20:33N 31°22' E 121°28'0 0.0
2015-Jul-24 19:33N 31°22' E 121°28'16814.3
2015-Jul-24 19:32N 31°19' E 121°47'14286.5
2015-Jul-24 19:29N 31°23' E 121°30'1415.5
2015-Jul-24 18:33N 31°19' E 121°47'16635.3
2015-Jul-24 18:32N 31°22' E 121°28'1616.5
2015-Jul-24 17:33N 31°19' E 121°47'165781.2
2015-Jul-24 17:33N 31°22' E 121°28'1616.1
2015-Jul-24 16:33N 31°19' E 121°47'1628906.0
2015-Jul-24 16:33N 31°22' E 121°28'1616.1
2015-Jul-24 15:33N 31°19' E 121°47'16731.8
2015-Jul-24 15:32N 31°22' E 121°28'0 0.0
2015-Jul-24 14:33N 31°22' E 121°28'163613.2
2015-Jul-24 14:33N 31°19' E 121°47'0 0.0
2015-Jul-24 13:33N 31°19' E 121°47'161445.3
2015-Jul-24 13:33N 31°22' E 121°28'1616.2
2015-Jul-24 12:33N 31°19' E 121°47'16932.5
2015-Jul-24 12:32N 31°22' E 121°28'1313.4
2015-Jul-24 11:34N 31°22' E 121°43'134740.3
2015-Jul-24 11:33N 31°22' E 121°28'1313.2
2015-Jul-24 10:34N 31°22' E 121°43'131529.1
2015-Jul-24 10:33N 31°22' E 121°28'1313.3
2015-Jul-24 09:34N 31°22' E 121°43'134309.3
2015-Jul-24 09:33N 31°22' E 121°28'0 0.0
2015-Jul-24 08:33N 31°22' E 121°28'134740.3
2015-Jul-24 08:33N 31°22' E 121°43'1313.2
2015-Jul-24 07:33N 31°22' E 121°28'133618.0
2015-Jul-24 07:33N 31°22' E 121°43'1313.1
2015-Jul-24 06:33N 31°22' E 121°28'132766.8
2015-Jul-24 06:33N 31°22' E 121°43'0 0.0
2015-Jul-24 05:33N 31°22' E 121°43'13761.6
2015-Jul-24 05:32N 31°22' E 121°28'1313.3
2015-Jul-24 04:33N 31°22' E 121°43'132248.6
2015-Jul-24 04:33N 31°22' E 121°28'0 0.0
2015-Jul-24 03:33N 31°22' E 121°28'132623.3
2015-Jul-24 03:33N 31°22' E 121°43'1313.2
2015-Jul-24 02:33N 31°22' E 121°28'134721.9
2015-Jul-24 02:33N 31°22' E 121°43'1514.6
2015-Jul-24 01:33N 31°21' E 121°26'151078.3
2015-Jul-24 01:32N 31°22' E 121°43'0 0.0
2015-Jul-24 00:33N 31°22' E 121°43'15292.9
2015-Jul-24 00:30N 31°21' E 121°26'1515.5
2015-Jul-23 23:33N 31°22' E 121°43'152790.5
2015-Jul-23 23:33N 31°21' E 121°26'1514.8
2015-Jul-23 22:33N 31°22' E 121°43'152651.0
2015-Jul-23 22:33N 31°21' E 121°26'1514.8
2015-Jul-23 21:33N 31°22' E 121°43'151039.6
2015-Jul-23 21:33N 31°21' E 121°26'1514.9
2015-Jul-23 20:33N 31°22' E 121°43'151325.5
2015-Jul-23 20:33N 31°21' E 121°26'1514.9
2015-Jul-23 19:34N 31°22' E 121°43'15348.8
2015-Jul-23 19:31N 31°21' E 121°26'726.7
2015-Jul-23 19:15N 31°14' E 121°29'1420.2
2015-Jul-23 18:33N 31°22' E 121°43'1526509.5
2015-Jul-23 18:33N 31°21' E 121°26'1514.8
2015-Jul-23 17:33N 31°22' E 121°43'155891.1
2015-Jul-23 17:33N 31°21' E 121°26'6129.4
2015-Jul-23 17:31N 31°20' E 121°33'9 9.4
2015-Jul-23 16:33N 31°22' E 121°43'15662.7
2015-Jul-23 16:32N 31°21' E 121°26'42793.3
2015-Jul-23 16:32N 31°23' E 121°30'1111.7
2015-Jul-23 15:34N 31°22' E 121°43'154820.0
2015-Jul-23 15:33N 31°21' E 121°26'6194.8
2015-Jul-23 15:32N 31°26' E 121°29'6 5.8
2015-Jul-23 14:33N 31°21' E 121°26'151082.0
2015-Jul-23 14:32N 31°22' E 121°43'0 0.0
2015-Jul-23 13:33N 31°22' E 121°43'153118.8
2015-Jul-23 13:33N 31°21' E 121°26'1514.9
2015-Jul-23 12:33N 31°22' E 121°43'151656.9
2015-Jul-23 12:33N 31°21' E 121°26'1514.9
2015-Jul-23 11:34N 31°22' E 121°43'15424.2
2015-Jul-23 11:31N 31°21' E 121°26'1515.3
2015-Jul-23 10:34N 31°22' E 121°43'151039.6
2015-Jul-23 10:33N 31°21' E 121°26'1514.9
2015-Jul-23 09:33N 31°22' E 121°43'154819.9
2015-Jul-23 09:33N 31°21' E 121°26'1514.9
2015-Jul-23 08:33N 31°22' E 121°43'1553374.1
2015-Jul-23 08:33N 31°21' E 121°26'0 0.0
2015-Jul-23 07:32N 31°21' E 121°26'15118.6
2015-Jul-23 07:24N 31°22' E 121°43'0 0.0
2015-Jul-23 06:33N 31°22' E 121°43'1526595.5
2015-Jul-23 06:33N 31°21' E 121°26'4608.6
2015-Jul-23 06:33N 31°23' E 121°30'1111.5
2015-Jul-23 05:34N 31°22' E 121°43'154835.5
2015-Jul-23 05:33N 31°21' E 121°26'1514.8
2015-Jul-23 04:33N 31°22' E 121°43'147203.9
2015-Jul-23 04:33N 31°14' E 121°29'7736.4
2015-Jul-23 04:33N 31°21' E 121°26'1514.9
2015-Jul-23 03:33N 31°22' E 121°43'158806.0
2015-Jul-23 03:33N 31°21' E 121°26'1343.3
2015-Jul-23 03:15N 31°08' E 121°28'1927.3
2015-Jul-23 02:33N 31°22' E 121°43'151148.6
2015-Jul-23 02:33N 31°21' E 121°26'0 0.0
2015-Jul-23 01:33N 31°21' E 121°26'1513209.0
2015-Jul-23 01:33N 31°22' E 121°43'1514.7
2015-Jul-23 00:33N 31°21' E 121°26'1510567.2
2015-Jul-23 00:33N 31°22' E 121°43'0 0.0
2015-Jul-22 23:33N 31°22' E 121°43'153522.4
2015-Jul-22 23:33N 31°21' E 121°26'7426.3
2015-Jul-22 23:32N 31°15' E 121°30'1313.2
2015-Jul-22 22:33N 31°22' E 121°43'15960.7
2015-Jul-22 22:32N 31°21' E 121°26'0 0.0
2015-Jul-22 21:33N 31°21' E 121°26'151601.1
2015-Jul-22 21:33N 31°22' E 121°43'1514.7
2015-Jul-22 20:33N 31°21' E 121°26'1513209.0
2015-Jul-22 20:33N 31°22' E 121°43'1514.8
2015-Jul-22 19:33N 31°21' E 121°26'152032.2
2015-Jul-22 19:33N 31°22' E 121°43'0 0.0
2015-Jul-22 18:33N 31°22' E 121°43'223119.0
2015-Jul-22 18:33N 31°04' E 121°28'2221.7
2015-Jul-22 17:33N 31°22' E 121°43'15812.9
2015-Jul-22 17:32N 31°21' E 121°26'0 0.0
2015-Jul-22 16:33N 31°21' E 121°26'153302.2
2015-Jul-22 16:33N 31°22' E 121°43'2260.6
2015-Jul-22 16:12N 31°04' E 121°28'2234.0
2015-Jul-22 15:33N 31°22' E 121°43'158806.0
2015-Jul-22 15:33N 31°21' E 121°26'0 0.0
2015-Jul-22 14:33N 31°21' E 121°26'1517612.0
2015-Jul-22 14:33N 31°22' E 121°43'1514.6
2015-Jul-22 13:33N 31°21' E 121°26'15254.0
2015-Jul-22 13:29N 31°22' E 121°43'0 0.0
2015-Jul-22 12:33N 31°22' E 121°43'255702.5
2015-Jul-22 12:33N 31°01' E 121°27'208153.8
2015-Jul-22 12:33N 31°21' E 121°26'1514.8
2015-Jul-22 11:33N 31°22' E 121°43'158806.0
2015-Jul-22 11:33N 31°21' E 121°26'23194.4
2015-Jul-22 11:26N 30°59' E 121°19'3134.7
2015-Jul-22 10:33N 31°22' E 121°43'151100.7
2015-Jul-22 10:33N 31°21' E 121°26'232810.5
2015-Jul-22 10:32N 30°59' E 121°20'3030.9
2015-Jul-22 09:33N 31°22' E 121°43'151433.0
2015-Jul-22 09:33N 31°21' E 121°26'0 0.0
2015-Jul-22 08:33N 31°21' E 121°26'1510604.0
2015-Jul-22 08:33N 31°22' E 121°43'0 0.0
2015-Jul-22 07:34N 31°22' E 121°43'155436.4
2015-Jul-22 07:33N 31°21' E 121°26'1515.1
2015-Jul-22 06:33N 31°22' E 121°43'15372.3
2015-Jul-22 06:31N 31°21' E 121°26'1515.7
2015-Jul-22 05:33N 31°22' E 121°43'15811.4
2015-Jul-22 05:32N 31°21' E 121°26'1515.3
2015-Jul-22 04:33N 31°22' E 121°43'153397.7
2015-Jul-22 04:33N 31°21' E 121°26'1515.2
2015-Jul-22 03:33N 31°22' E 121°43'15836.4
2015-Jul-22 03:32N 31°21' E 121°26'1515.4
2015-Jul-22 02:33N 31°22' E 121°43'15241.6
2015-Jul-22 02:30N 31°21' E 121°26'1516.1
2015-Jul-22 01:33N 31°22' E 121°43'357860.9
2015-Jul-22 01:33N 30°59' E 121°12'24458.6
2015-Jul-22 01:30N 31°21' E 121°26'2425.8
2015-Jul-22 00:34N 30°59' E 121°12'248758.5
2015-Jul-22 00:33N 31°21' E 121°26'1513591.0
2015-Jul-22 00:33N 31°22' E 121°43'0 0.0
2015-Jul-21 23:33N 31°22' E 121°43'15617.8
2015-Jul-21 23:32N 31°21' E 121°26'1515.5
2015-Jul-21 22:33N 31°22' E 121°43'152013.5
2015-Jul-21 22:33N 31°21' E 121°26'1515.2
2015-Jul-21 21:33N 31°22' E 121°43'15498.8
2015-Jul-21 21:32N 31°21' E 121°26'1515.5
2015-Jul-21 20:33N 31°22' E 121°43'15799.5
2015-Jul-21 20:32N 31°21' E 121°26'1515.5
2015-Jul-21 19:33N 31°22' E 121°43'155958.3
2015-Jul-21 19:33N 31°21' E 121°26'1514.9
2015-Jul-21 18:33N 31°22' E 121°43'151124.1
2015-Jul-21 18:33N 31°21' E 121°26'1514.8
2015-Jul-21 17:33N 31°22' E 121°43'153522.3
2015-Jul-21 17:33N 31°21' E 121°26'1514.6
2015-Jul-21 16:33N 31°22' E 121°43'152106.0
2015-Jul-21 16:32N 31°21' E 121°26'0 0.0
2015-Jul-21 15:33N 31°21' E 121°26'155850.1
2015-Jul-21 15:33N 31°22' E 121°43'0 0.0
2015-Jul-21 14:33N 31°22' E 121°43'151880.4
2015-Jul-21 14:33N 31°21' E 121°26'1514.6
2015-Jul-21 13:33N 31°22' E 121°43'152106.0
2015-Jul-21 13:33N 31°21' E 121°26'1514.7
2015-Jul-21 12:33N 31°22' E 121°43'15822.7
2015-Jul-21 12:32N 31°21' E 121°26'1514.9
2015-Jul-21 11:33N 31°22' E 121°43'1555.0
2015-Jul-21 11:17N 31°21' E 121°26'1519.9
2015-Jul-21 10:33N 31°22' E 121°43'15550.4
2015-Jul-21 10:32N 31°21' E 121°26'0 0.0
2015-Jul-21 09:33N 31°21' E 121°26'152113.4
2015-Jul-21 09:33N 31°22' E 121°43'0 0.0
2015-Jul-21 08:33N 31°22' E 121°43'136798.4
2015-Jul-21 08:33N 31°22' E 121°28'1313.2
2015-Jul-21 07:33N 31°22' E 121°43'12126.1
2015-Jul-21 07:28N 31°25' E 121°30'1213.4
2015-Jul-21 06:33N 31°22' E 121°43'246627.4
2015-Jul-21 06:33N 31°34' E 121°19'727.1
2015-Jul-21 06:18N 31°29' E 121°25'1723.5
2015-Jul-21 05:33N 31°22' E 121°43'1429.6
2015-Jul-21 05:04N 31°28' E 121°28'1427.9
2015-Jul-21 04:33N 31°22' E 121°43'11604.3
2015-Jul-21 04:32N 31°25' E 121°31'5 5.2
2015-Jul-21 03:33N 31°21' E 121°33'91309.9
2015-Jul-21 03:33N 31°22' E 121°43'0 0.0
2015-Jul-21 02:33N 31°22' E 121°43'452302.1
2015-Jul-21 02:32N 31°46' E 120°60'413164.9
2015-Jul-21 02:32N 31°15' E 121°31'1313.1
2015-Jul-21 01:33N 31°22' E 121°43'53327.8
2015-Jul-21 01:24N 31°52' E 120°53'6 7.6
2015-Jul-21 00:33N 31°58' E 120°50'64371.9
2015-Jul-21 00:23N 31°04' E 121°28'2226.7
2015-Jul-20 23:33N 31°22' E 121°43'651606.6
2015-Jul-20 23:31N 32°00' E 120°42'6567.4
2015-Jul-20 22:33N 31°22' E 121°43'0 0.0
2015-Jul-20 21:33N 31°22' E 121°43'0 0.0
2015-Jul-20 20:33N 31°22' E 121°43'0 0.0
2015-Jul-20 19:33N 31°22' E 121°43'801371.6
2015-Jul-20 19:30N 31°58' E 120°19'7 7.7
2015-Jul-20 18:33N 31°56' E 120°11'8614726.1
2015-Jul-20 18:33N 31°22' E 121°43'26113.8
2015-Jul-20 18:19N 31°01' E 121°26'2632.4
2015-Jul-20 17:32N 31°22' E 121°43'0 0.0
2015-Jul-20 16:33N 31°22' E 121°43'347135.8
2015-Jul-20 16:33N 30°58' E 121°16'3433.9
2015-Jul-20 15:33N 31°22' E 121°43'0 0.0
2015-Jul-20 14:33N 31°22' E 121°43'0 0.0
2015-Jul-20 13:32N 31°22' E 121°43'0 0.4
2015-Jul-20 12:33N 31°22' E 121°43'7 7.4
2015-Jul-20 11:33N 31°23' E 121°34'3 3.2
2015-Jul-20 10:33N 31°21' E 121°32'4 4.0
2015-Jul-20 09:33N 31°17' E 121°34'0 0.0
2015-Jul-20 08:27N 31°17' E 121°34'  

Dump ship's entire track history